createdAt,value
2023-02-04T00:03:12.772Z,2.4
2023-02-04T00:08:22.764Z,2.4
2023-02-04T00:13:36.256Z,2.4
2023-02-04T00:24:12.676Z,2.5
2023-02-04T00:34:45.715Z,2.5
2023-02-04T00:39:58.496Z,2.5
2023-02-04T00:45:10.509Z,2.4
2023-02-04T00:50:20.678Z,2.4
2023-02-04T01:11:41.207Z,2
2023-02-04T01:16:47.868Z,2.1
2023-02-04T01:21:58.456Z,2.2
2023-02-04T01:37:53.243Z,2.1
2023-02-04T01:48:28.386Z,2.1
2023-02-04T02:04:22.778Z,2
2023-02-04T02:25:38.092Z,2.2
2023-02-04T02:30:49.954Z,2.2
2023-02-04T02:52:04.171Z,2.1
2023-02-04T02:57:17.677Z,2.1
2023-02-04T03:13:13.259Z,2.1
2023-02-04T03:18:23.712Z,2.1
2023-02-04T03:39:40.684Z,2.1
2023-02-04T03:44:52.085Z,2.1
2023-02-04T03:50:04.337Z,2.1
2023-02-04T03:55:16.654Z,2.1
2023-02-04T04:00:28.572Z,2
2023-02-04T04:16:23.407Z,2.1
2023-02-04T04:21:33.950Z,2.1
2023-02-04T04:42:47.872Z,2
2023-02-04T04:48:00.021Z,2
2023-02-04T05:03:54.710Z,2
2023-02-04T05:25:10.576Z,2.1
2023-02-04T05:30:22.575Z,2.2
2023-02-04T05:35:32.712Z,2.2
2023-02-04T05:40:44.467Z,2.1
2023-02-04T05:56:38.391Z,1.9
2023-02-04T06:01:49.951Z,1.9
2023-02-04T06:06:59.214Z,2
2023-02-04T06:28:16.431Z,1.9
2023-02-04T06:44:09.715Z,1.9
2023-02-04T06:54:57.214Z,1.9
2023-02-04T07:00:09.246Z,1.9
2023-02-04T07:05:20.534Z,1.9
2023-02-04T07:15:58.050Z,1.9
2023-02-04T07:26:31.842Z,1.9
2023-02-04T07:31:44.522Z,2
2023-02-04T07:36:57.365Z,2
2023-02-04T07:42:08.811Z,2
2023-02-04T07:52:49.303Z,2
2023-02-04T07:58:05.846Z,2
2023-02-04T08:03:18.005Z,2.2
2023-02-04T08:24:34.288Z,2.5
2023-02-04T08:40:26.925Z,2.6
2023-02-04T08:56:26.185Z,2.6
2023-02-04T09:01:38.641Z,3
2023-02-04T09:17:36.788Z,3
2023-02-04T09:22:49.032Z,3.2
2023-02-04T09:28:06.389Z,3.2
2023-02-04T09:43:59.044Z,3.3
2023-02-04T09:49:11.145Z,3.3
2023-02-04T10:10:29.316Z,3.3
2023-02-04T10:26:29.493Z,3.5
2023-02-04T10:32:05.704Z,3.5
2023-02-04T10:37:15.282Z,3.9
2023-02-04T10:42:29.588Z,4.1
2023-02-04T10:47:45.190Z,4.8
2023-02-04T10:58:22.339Z,5.2
2023-02-04T11:03:35.166Z,5.5
2023-02-04T11:14:10.750Z,5.2
2023-02-04T11:19:22.420Z,4.4
2023-02-04T11:24:33.705Z,4.3
2023-02-04T11:29:43.862Z,4.2
2023-02-04T11:34:55.838Z,4.2
2023-02-04T11:40:13.217Z,4.2
2023-02-04T11:45:34.510Z,4.2
2023-02-04T11:50:43.870Z,3.8
2023-02-04T11:55:56.822Z,3.8
2023-02-04T12:01:09.016Z,3.8
2023-02-04T12:06:20.744Z,3.8
2023-02-04T12:16:53.835Z,3.8
2023-02-04T12:22:09.624Z,3.8
2023-02-04T12:27:20.640Z,4
2023-02-04T12:32:31.418Z,4.1
2023-02-04T12:37:50.030Z,4.1
2023-02-04T12:43:00.533Z,4.1
2023-02-04T12:48:13.540Z,4.1
2023-02-04T12:53:25.156Z,3.9
2023-02-04T12:58:45.112Z,3.9
2023-02-04T13:03:56.890Z,3.7
2023-02-04T13:09:10.444Z,3.7
2023-02-04T13:14:24.819Z,3.6
2023-02-04T13:19:41.148Z,3.5
2023-02-04T13:24:51.493Z,3.3
2023-02-04T13:30:09.146Z,3.3
2023-02-04T13:35:21.250Z,3.4
2023-02-04T13:40:32.823Z,3.4
2023-02-04T13:45:52.222Z,3.5
2023-02-04T13:50:58.315Z,3.5
2023-02-04T13:56:15.604Z,3.5
2023-02-04T14:01:25.122Z,3.7
2023-02-04T14:06:36.809Z,3.8
2023-02-04T14:11:47.448Z,3.8
2023-02-04T14:22:20.957Z,3.9
2023-02-04T14:27:37.360Z,3.9
2023-02-04T14:32:53.381Z,3.9
2023-02-04T14:38:09.252Z,3.9
2023-02-04T14:43:20.999Z,3.7
2023-02-04T14:48:35.706Z,3.7
2023-02-04T14:53:49.142Z,3.7
2023-02-04T14:58:59.090Z,3.5
2023-02-04T15:09:33.083Z,3.4
2023-02-04T15:14:42.272Z,3.3
2023-02-04T15:19:54.633Z,3.2
2023-02-04T15:25:17.279Z,3.2
2023-02-04T15:30:25.344Z,3.1
2023-02-04T15:41:03.901Z,3.1
2023-02-04T15:46:07.293Z,3.2
2023-02-04T15:51:19.185Z,3.3
2023-02-04T15:56:31.167Z,3.2
2023-02-04T16:01:43.302Z,3
2023-02-04T16:06:59.312Z,3
2023-02-04T16:12:07.469Z,3.1
2023-02-04T16:17:19.437Z,3
2023-02-04T16:22:29.190Z,3
2023-02-04T16:27:44.115Z,2.9
2023-02-04T16:32:53.829Z,2.8
2023-02-04T16:38:04.243Z,2.8
2023-02-04T16:43:15.784Z,2.5
2023-02-04T16:48:27.125Z,2.5
2023-02-04T16:53:37.187Z,2.5
2023-02-04T16:58:49.074Z,2.5
2023-02-04T17:04:04.818Z,2.5
2023-02-04T17:09:15.437Z,2.2
2023-02-04T17:14:27.247Z,2.3
2023-02-04T17:19:38.251Z,2
2023-02-04T17:24:54.336Z,2
2023-02-04T17:30:07.098Z,2.3
2023-02-04T17:35:18.552Z,2
2023-02-04T17:45:55.862Z,2
2023-02-04T17:51:06.657Z,1.9
2023-02-04T17:56:18.984Z,2.1
2023-02-04T18:01:32.378Z,2.1
2023-02-04T18:12:02.741Z,2.1
2023-02-04T18:17:14.875Z,2.2
2023-02-04T18:22:30.700Z,2.2
2023-02-04T18:33:05.061Z,1.8
2023-02-04T18:38:20.052Z,1.8
2023-02-04T18:43:33.102Z,1.8
2023-02-04T18:48:44.430Z,2
2023-02-04T18:53:56.413Z,2.1
2023-02-04T18:59:08.342Z,1.6
2023-02-04T19:09:45.508Z,1.6
2023-02-04T19:14:56.660Z,1.8
2023-02-04T19:20:08.793Z,2
2023-02-04T19:25:19.462Z,1.6
2023-02-04T19:30:36.182Z,1.6
2023-02-04T19:36:01.263Z,1.6
2023-02-04T19:41:09.574Z,1.6
2023-02-04T19:46:20.114Z,2
2023-02-04T19:51:36.827Z,2
2023-02-04T19:56:56.824Z,2
2023-02-04T20:02:08.438Z,1.6
2023-02-04T20:07:24.300Z,1.6
2023-02-04T20:12:36.644Z,1.8
2023-02-04T20:17:51.118Z,1.8
2023-02-04T20:23:00.958Z,1.5
2023-02-04T20:33:33.234Z,1.5
2023-02-04T20:38:47.785Z,1.4
2023-02-04T20:43:57.332Z,1.8
2023-02-04T20:49:13.236Z,1.8
2023-02-04T20:54:28.638Z,1.8
2023-02-04T20:59:44.940Z,1.8
2023-02-04T21:05:01.564Z,1.8
2023-02-04T21:10:18.081Z,1.8
2023-02-04T21:15:29.695Z,1.4
2023-02-04T21:20:45.074Z,1.4
2023-02-04T21:31:19.829Z,1.4
2023-02-04T21:41:52.764Z,1.5
2023-02-04T21:47:11.246Z,1.5
2023-02-04T21:52:27.984Z,1.5
2023-02-04T21:57:39.538Z,1.2
2023-02-04T22:02:51.455Z,1.3
2023-02-04T22:08:03.671Z,1.4
2023-02-04T22:13:19.129Z,1.4
2023-02-04T22:18:33.714Z,1.4
2023-02-04T22:23:50.543Z,1.4
2023-02-04T22:29:04.590Z,1.4
2023-02-04T22:39:36.994Z,1.4
2023-02-04T22:50:08.466Z,1
2023-02-04T22:55:23.914Z,1
2023-02-04T23:00:37.177Z,0.8
2023-02-04T23:05:53.013Z,0.8
2023-02-04T23:16:30.718Z,0.8
2023-02-04T23:21:41.007Z,0.7
2023-02-04T23:26:54.409Z,0.7
2023-02-04T23:32:08.945Z,0.7
2023-02-04T23:42:42.532Z,0.6
2023-02-04T23:47:58.900Z,0.6
2023-02-04T23:53:14.404Z,0.6
2023-02-04T23:58:31.583Z,0.6
